Time;durP1;ratioP1;P1;durP2;ratioP2;P2;SDS_P1;SDS_P2;PMS_P1;PMS_P2;Temp;Humidity;BMP_temperature;BMP_pressure;BME280_temperature;BME280_humidity;BME280_pressure;Samples;Min_cycle;Max_cycle;Signal;HPM_P1;HPM_P2
2021/11/11 00:01:39;;;;;;;15.87;12.27;;;7.00;98.40;;;;;;4994478;28;20177;-66
2021/11/11 00:04:06;;;;;;;12.63;10.37;;;7.10;98.60;;;;;;5011338;28;20408;-67
2021/11/11 00:06:32;;;;;;;13.27;11.07;;;7.00;98.40;;;;;;5011811;28;20415;-67
2021/11/11 00:08:57;;;;;;;11.30;10.20;;;7.00;98.20;;;;;;4993892;28;20468;-67
2021/11/11 00:11:23;;;;;;;15.77;11.30;;;7.00;98.40;;;;;;5011083;28;20194;-66
2021/11/11 00:13:49;;;;;;;14.70;12.23;;;6.90;97.80;;;;;;5012106;28;20217;-66
2021/11/11 00:16:15;;;;;;;18.33;11.10;;;6.80;98.90;;;;;;5010828;28;20411;-66
2021/11/11 00:18:41;;;;;;;14.20;11.87;;;6.80;99.20;;;;;;5011825;28;20177;-67
2021/11/11 00:21:08;;;;;;;14.20;11.80;;;6.70;99.40;;;;;;4993667;28;20433;-66
2021/11/11 00:23:33;;;;;;;12.90;10.53;;;6.60;99.10;;;;;;5012029;28;20212;-66
2021/11/11 00:25:59;;;;;;;12.87;10.47;;;6.70;98.90;;;;;;5011552;28;20456;-66
2021/11/11 00:28:25;;;;;;;13.33;10.90;;;6.70;98.80;;;;;;5011025;28;20205;-66
2021/11/11 00:30:51;;;;;;;18.23;11.73;;;6.60;98.20;;;;;;5011975;28;20223;-66
2021/11/11 00:33:16;;;;;;;14.33;11.57;;;6.60;98.00;;;;;;5010389;28;20190;-66
2021/11/11 00:35:42;;;;;;;16.00;11.03;;;6.60;98.20;;;;;;5014033;28;20189;-66
2021/11/11 00:38:08;;;;;;;21.10;13.30;;;6.50;98.10;;;;;;4997203;28;20230;-66
2021/11/11 00:40:35;;;;;;;13.80;12.30;;;6.50;98.00;;;;;;5015124;28;20405;-66
2021/11/11 00:43:01;;;;;;;15.70;13.60;;;6.60;98.10;;;;;;5015381;28;20252;-66
2021/11/11 00:45:27;;;;;;;17.10;13.93;;;6.50;98.30;;;;;;5014495;28;20458;-66
2021/11/11 00:47:55;;;;;;;14.60;12.53;;;6.60;98.50;;;;;;5014914;28;20594;-66
2021/11/11 00:50:23;;;;;;;15.90;12.40;;;6.60;98.70;;;;;;5014377;28;20411;-66
2021/11/11 00:52:49;;;;;;;16.93;12.17;;;6.50;98.30;;;;;;5015254;28;20387;-66
2021/11/11 00:55:15;;;;;;;13.53;11.50;;;6.50;98.10;;;;;;5014261;28;20405;-66
2021/11/11 00:57:41;;;;;;;13.20;11.70;;;6.60;98.40;;;;;;5015053;28;20734;-66
2021/11/11 01:00:11;;;;;;;16.60;12.53;;;6.60;98.60;;;;;;5013965;28;20422;-70
2021/11/11 01:02:37;;;;;;;15.83;11.53;;;6.60;98.60;;;;;;5014920;28;20185;-67
2021/11/11 01:05:06;;;;;;;13.90;11.97;;;6.60;98.30;;;;;;4997082;28;20965;-72
2021/11/11 01:07:32;;;;;;;17.00;13.37;;;6.50;98.20;;;;;;5014943;28;20418;-66
2021/11/11 01:09:58;;;;;;;15.90;13.27;;;6.50;98.00;;;;;;5014773;28;20462;-66
2021/11/11 01:12:23;;;;;;;17.77;15.17;;;6.40;97.90;;;;;;5013625;28;20391;-67
2021/11/11 01:14:49;;;;;;;19.30;14.90;;;6.40;98.00;;;;;;5014251;28;20227;-66
2021/11/11 01:17:15;;;;;;;17.77;13.10;;;6.40;98.10;;;;;;5013876;28;20175;-66
2021/11/11 01:19:40;;;;;;;17.57;13.23;;;6.40;98.10;;;;;;5014758;28;20191;-66
2021/11/11 01:22:06;;;;;;;17.73;13.40;;;6.40;97.90;;;;;;5013710;28;20182;-73
2021/11/11 01:24:33;;;;;;;17.30;13.50;;;6.30;97.90;;;;;;5014167;28;20325;-66
2021/11/11 01:26:59;;;;;;;16.88;13.65;;;6.00;97.50;;;;;;5014393;28;20204;-66
2021/11/11 01:29:25;;;;;;;17.00;13.40;;;6.30;97.70;;;;;;5013637;28;20296;-66
2021/11/11 01:31:51;;;;;;;19.53;14.47;;;6.30;97.80;;;;;;5014527;28;20327;-66
2021/11/11 01:34:17;;;;;;;17.20;12.93;;;6.20;97.50;;;;;;4996092;28;20184;-66
2021/11/11 01:36:43;;;;;;;18.23;13.93;;;6.30;97.80;;;;;;5014178;28;20433;-66
2021/11/11 01:39:09;;;;;;;16.63;12.13;;;6.20;98.20;;;;;;4996083;28;20717;-72
2021/11/11 01:41:34;;;;;;;16.90;13.70;;;6.40;98.70;;;;;;5013259;28;20431;-67
2021/11/11 01:44:00;;;;;;;17.00;13.67;;;6.30;98.60;;;;;;5014368;28;20471;-66
2021/11/11 01:46:27;;;;;;;21.25;13.55;;;6.20;98.20;;;;;;5012371;28;20484;-68
2021/11/11 01:48:53;;;;;;;18.83;13.43;;;6.30;98.60;;;;;;5014061;28;20215;-66
2021/11/11 01:51:22;;;;;;;15.23;12.77;;;6.20;97.90;;;;;;5011884;28;20576;-66
2021/11/11 01:53:49;;;;;;;16.30;12.77;;;6.20;97.60;;;;;;5013751;28;20387;-66
2021/11/11 01:56:15;;;;;;;19.83;14.57;;;6.20;97.50;;;;;;5012805;28;20416;-66
2021/11/11 01:58:41;;;;;;;18.27;13.37;;;6.00;97.70;;;;;;5014101;28;20187;-66
2021/11/11 02:01:07;;;;;;;17.70;13.40;;;6.10;98.10;;;;;;5013680;28;20719;-71
2021/11/11 02:03:33;;;;;;;21.43;13.70;;;6.10;98.00;;;;;;5013335;28;20227;-66
2021/11/11 02:05:59;;;;;;;16.30;12.30;;;6.10;98.00;;;;;;5013816;28;20464;-66
2021/11/11 02:08:25;;;;;;;15.70;12.80;;;5.60;98.00;;;;;;5012233;28;20470;-66
2021/11/11 02:10:51;;;;;;;17.75;13.52;;;6.10;98.10;;;;;;4996415;28;20175;-66
2021/11/11 02:13:18;;;;;;;17.98;13.57;;;6.00;97.80;;;;;;5012823;28;20192;-66
2021/11/11 02:15:44;;;;;;;14.13;12.63;;;6.00;97.80;;;;;;5013724;28;20175;-67
2021/11/11 02:18:10;;;;;;;14.27;11.23;;;6.00;97.60;;;;;;5013146;28;20191;-73
2021/11/11 02:20:39;;;;;;;15.45;12.93;;;6.00;98.00;;;;;;5013352;28;20266;-66
2021/11/11 02:23:10;;;;;;;15.50;11.95;;;6.00;98.10;;;;;;5013484;28;20207;-66
2021/11/11 02:25:36;;;;;;;13.70;12.15;;;6.00;98.10;;;;;;5013371;28;20607;-66
2021/11/11 02:28:06;;;;;;;13.50;12.07;;;5.60;97.70;;;;;;5013270;28;20567;-66
2021/11/11 02:30:33;;;;;;;14.75;11.95;;;5.90;97.80;;;;;;5012427;28;20382;-66
2021/11/11 02:33:01;;;;;;;16.65;12.00;;;5.90;97.50;;;;;;5013344;28;20186;-66
2021/11/11 02:35:27;;;;;;;15.18;12.30;;;5.90;97.70;;;;;;5012727;28;20183;-66
2021/11/11 02:37:53;;;;;;;16.13;11.85;;;5.90;97.70;;;;;;5013407;28;20172;-66
2021/11/11 02:40:22;;;;;;;15.77;12.63;;;5.60;97.50;;;;;;5012829;28;20799;-66
2021/11/11 02:42:49;;;;;;;13.48;11.70;;;5.90;97.30;;;;;;5013636;28;20872;-66
2021/11/11 02:45:22;;;;;;;14.77;12.45;;;5.80;97.00;;;;;;4994962;28;20191;-66
2021/11/11 02:47:48;;;;;;;17.20;12.60;;;5.80;97.40;;;;;;5013188;28;20171;-67
2021/11/11 02:50:15;;;;;;;17.48;12.73;;;5.80;97.70;;;;;;5013113;28;20598;-66
2021/11/11 02:52:42;;;;;;;16.67;13.25;;;5.80;97.70;;;;;;5013392;28;20183;-66
2021/11/11 02:55:08;;;;;;;14.73;12.32;;;5.90;97.60;;;;;;5013294;28;20173;-67
2021/11/11 02:57:36;;;;;;;14.57;11.75;;;5.80;97.60;;;;;;5012695;28;20628;-66
2021/11/11 03:00:27;;;;;;;13.90;12.20;;;5.80;97.30;;;;;;5012702;28;20191;-66
2021/11/11 03:02:53;;;;;;;16.45;11.85;;;5.70;97.30;;;;;;4995755;28;20560;-66
2021/11/11 03:05:27;;;;;;;15.93;12.95;;;5.50;96.90;;;;;;4994905;28;20229;-66
2021/11/11 03:07:53;;;;;;;13.98;11.85;;;5.70;97.30;;;;;;5013101;28;20183;-66
2021/11/11 03:10:23;;;;;;;16.60;11.45;;;5.70;97.20;;;;;;5012373;28;20258;-66
2021/11/11 03:12:51;;;;;;;14.88;10.65;;;5.70;97.10;;;;;;5012805;28;20186;-66
2021/11/11 03:15:17;;;;;;;13.75;11.23;;;5.20;96.70;;;;;;4994964;28;20179;-66
2021/11/11 03:17:44;;;;;;;12.52;10.95;;;5.60;96.90;;;;;;5013002;28;20205;-66
2021/11/11 03:20:12;;;;;;;16.20;12.10;;;5.60;97.10;;;;;;5012647;28;20574;-66
2021/11/11 03:22:40;;;;;;;13.05;11.55;;;5.30;97.20;;;;;;5012971;28;20184;-66
2021/11/11 03:25:07;;;;;;;14.13;11.25;;;5.60;97.10;;;;;;5012888;28;20527;-66
2021/11/11 03:27:33;;;;;;;17.60;12.52;;;5.60;97.00;;;;;;5012052;28;20183;-66
2021/11/11 03:29:59;;;;;;;13.33;11.80;;;5.50;97.10;;;;;;5012880;28;20218;-66
2021/11/11 03:32:24;;;;;;;15.30;11.90;;;5.50;97.20;;;;;;5011903;28;20405;-66
2021/11/11 03:34:50;;;;;;;16.30;12.20;;;5.50;96.90;;;;;;5012507;28;20407;-66
2021/11/11 03:37:17;;;;;;;12.97;11.27;;;5.50;96.80;;;;;;5012218;28;20698;-66
2021/11/11 03:39:43;;;;;;;14.73;12.13;;;5.00;97.30;;;;;;5012845;28;20464;-66
2021/11/11 03:42:10;;;;;;;17.55;11.98;;;5.10;98.00;;;;;;5012570;28;20582;-66
2021/11/11 03:44:38;;;;;;;15.32;12.05;;;5.50;98.50;;;;;;5011028;28;20179;-66
2021/11/11 03:47:05;;;;;;;17.92;12.18;;;5.00;98.40;;;;;;5012334;28;20178;-66
2021/11/11 03:49:32;;;;;;;14.77;11.30;;;5.40;98.60;;;;;;5012042;28;20250;-66
2021/11/11 03:51:58;;;;;;;13.68;11.30;;;5.40;98.20;;;;;;5012552;28;20240;-66
2021/11/11 03:54:26;;;;;;;15.90;12.43;;;5.40;98.20;;;;;;5012029;28;20213;-66
2021/11/11 03:56:54;;;;;;;16.17;11.32;;;5.40;98.10;;;;;;5012349;28;20179;-66
2021/11/11 03:59:20;;;;;;;14.73;12.00;;;5.40;98.10;;;;;;5011792;28;20179;-66
2021/11/11 04:01:46;;;;;;;14.23;12.70;;;5.00;98.30;;;;;;5012582;28;20198;-66
2021/11/11 04:04:11;;;;;;;13.67;11.30;;;5.40;99.10;;;;;;5012601;28;20167;-66
2021/11/11 04:06:37;;;;;;;19.10;11.97;;;5.10;99.20;;;;;;5011935;28;20262;-66
2021/11/11 04:09:04;;;;;;;15.30;12.20;;;5.40;99.50;;;;;;5012526;28;20218;-66
2021/11/11 04:11:31;;;;;;;17.63;12.27;;;5.40;99.60;;;;;;5015920;28;20179;-66
2021/11/11 04:13:57;;;;;;;17.45;11.63;;;5.10;99.50;;;;;;5015982;28;20179;-66
2021/11/11 04:16:24;;;;;;;18.75;13.35;;;5.40;99.80;;;;;;5015690;28;20211;-66
2021/11/11 04:18:50;;;;;;;31.98;13.18;;;5.40;99.90;;;;;;5016204;28;20179;-66
2021/11/11 04:21:17;;;;;;;17.65;12.45;;;5.00;99.80;;;;;;5015336;28;20627;-66
2021/11/11 04:23:44;;;;;;;19.55;12.38;;;5.20;99.90;;;;;;5016139;28;20171;-66
2021/11/11 04:28:43;;;;;;;18.50;12.63;;;5.50;99.90;;;;;;5015077;28;20562;-66
2021/11/11 04:31:17;;;;;;;14.75;11.70;;;5.20;99.90;;;;;;5016144;28;20170;-66
2021/11/11 04:33:44;;;;;;;26.00;13.88;;;5.50;99.90;;;;;;5016114;28;20642;-66
2021/11/11 04:42:00;;;;;;;18.27;13.88;;;5.50;99.90;;;;;;5014463;28;20221;-66
2021/11/11 04:47:27;;;;;;;19.77;13.57;;;5.50;99.90;;;;;;5015330;28;20183;-66
2021/11/11 05:00:59;;;;;;;18.30;13.40;;;5.70;99.90;;;;;;4942187;28;20258;-66
2021/11/11 05:03:35;;;;;;;35.38;15.13;;;5.90;99.90;;;;;;4994603;28;20422;-67
2021/11/11 05:06:02;;;;;;;40.47;13.63;;;5.70;99.90;;;;;;4995581;28;20172;-66
2021/11/11 05:08:29;;;;;;;32.88;14.45;;;5.70;99.90;;;;;;4996592;28;20211;-67
2021/11/11 05:10:55;;;;;;;61.13;16.27;;;5.70;99.90;;;;;;5013402;28;20179;-66
2021/11/11 05:13:21;;;;;;;27.55;14.57;;;5.60;99.90;;;;;;5014236;28;20524;-73
2021/11/11 05:15:48;;;;;;;48.53;15.47;;;5.60;99.90;;;;;;5014566;28;20257;-66
2021/11/11 05:18:14;;;;;;;28.83;14.43;;;5.60;99.90;;;;;;5008858;28;20435;-66
2021/11/11 05:20:39;;;;;;;36.40;15.38;;;5.60;99.90;;;;;;5014019;28;20175;-66
2021/11/11 05:23:05;;;;;;;37.40;14.83;;;5.50;99.90;;;;;;5014613;28;20182;-66
2021/11/11 05:25:31;;;;;;;22.08;14.10;;;5.60;99.90;;;;;;5012955;28;20930;-66
2021/11/11 05:27:58;;;;;;;44.10;14.13;;;5.20;99.90;;;;;;5014162;28;20225;-66
2021/11/11 05:30:25;;;;;;;22.25;14.60;;;5.70;99.90;;;;;;5007305;28;20411;-67
2021/11/11 05:32:51;;;;;;;22.48;12.13;;;5.60;99.90;;;;;;5013105;28;20601;-66
2021/11/11 05:35:17;;;;;;;21.20;12.35;;;5.70;99.90;;;;;;5013877;28;20238;-66
2021/11/11 05:37:43;;;;;;;31.10;13.18;;;5.60;99.90;;;;;;4995131;28;20188;-66
2021/11/11 05:40:11;;;;;;;22.20;12.18;;;5.30;99.90;;;;;;5000694;28;20186;-65
2021/11/11 05:42:37;;;;;;;16.35;13.77;;;5.50;99.90;;;;;;5013641;28;20255;-66
2021/11/11 05:45:04;;;;;;;19.38;12.82;;;5.10;99.90;;;;;;5014305;28;20179;-67
2021/11/11 05:47:30;;;;;;;21.33;14.23;;;5.50;99.90;;;;;;5012275;28;20568;-67
2021/11/11 05:49:56;;;;;;;17.30;13.73;;;5.70;99.90;;;;;;5014338;28;20207;-67
2021/11/11 05:52:22;;;;;;;20.70;14.23;;;5.10;99.90;;;;;;5013539;28;20531;-67
2021/11/11 05:54:47;;;;;;;19.15;14.48;;;5.20;99.90;;;;;;5014335;28;20225;-67
2021/11/11 05:57:13;;;;;;;20.40;14.43;;;5.50;99.90;;;;;;5014209;28;20179;-68
2021/11/11 05:59:39;;;;;;;31.90;15.80;;;5.50;99.90;;;;;;5000591;28;20172;-68
2021/11/11 06:02:13;;;;;;;19.52;13.30;;;5.30;99.90;;;;;;4995969;28;20179;-68
2021/11/11 06:04:40;;;;;;;18.50;13.32;;;5.20;99.90;;;;;;5013714;28;20167;-68
2021/11/11 06:07:06;;;;;;;16.80;13.20;;;5.60;99.90;;;;;;5013923;28;20186;-68
2021/11/11 06:09:32;;;;;;;14.95;12.25;;;5.60;99.90;;;;;;5012906;28;20558;-68
2021/11/11 06:11:58;;;;;;;33.60;18.30;;;5.60;99.90;;;;;;5014104;28;20179;-68
2021/11/11 06:14:24;;;;;;;22.63;14.20;;;5.60;99.90;;;;;;5013228;28;20396;-67
2021/11/11 06:16:50;;;;;;;18.00;14.07;;;5.60;99.90;;;;;;5013973;28;20391;-67
2021/11/11 06:19:17;;;;;;;16.33;13.10;;;5.60;99.90;;;;;;5013791;28;20607;-69
2021/11/11 06:21:44;;;;;;;14.82;13.15;;;5.70;99.90;;;;;;5012855;28;20786;-69
2021/11/11 06:24:12;;;;;;;19.45;12.90;;;5.40;99.90;;;;;;5013931;28;20190;-69
2021/11/11 06:26:38;;;;;;;19.17;14.73;;;6.10;99.90;;;;;;5012193;28;20225;-69
2021/11/11 06:29:05;;;;;;;17.60;13.77;;;6.80;99.90;;;;;;5013706;28;20212;-69
2021/11/11 06:31:31;;;;;;;17.33;12.30;;;7.70;99.90;;;;;;5013132;28;20401;-69
2021/11/11 06:33:57;;;;;;;19.37;13.00;;;8.80;99.90;;;;;;5012707;28;20434;-70
2021/11/11 06:36:24;;;;;;;23.60;13.80;;;9.40;99.90;;;;;;5012444;28;20422;-70
2021/11/11 06:38:49;;;;;;;22.43;13.03;;;9.70;99.90;;;;;;5013976;28;20422;-69
2021/11/11 06:41:15;;;;;;;17.83;12.00;;;10.20;97.70;;;;;;5012476;28;20431;-69
2021/11/11 06:43:43;;;;;;;26.00;12.87;;;10.60;96.20;;;;;;5012128;28;20249;-69
2021/11/11 06:46:09;;;;;;;16.00;12.73;;;11.10;96.30;;;;;;4994789;28;20421;-69
2021/11/11 06:48:35;;;;;;;17.80;12.50;;;11.50;96.50;;;;;;5011694;28;20796;-69
2021/11/11 06:51:06;;;;;;;17.93;12.30;;;11.80;94.30;;;;;;5012546;28;20482;-69
2021/11/11 06:53:32;;;;;;;25.00;13.50;;;12.20;93.10;;;;;;5012496;28;20414;-69
2021/11/11 06:55:58;;;;;;;25.93;13.33;;;12.40;91.60;;;;;;4995370;28;20488;-69
2021/11/11 06:58:24;;;;;;;20.90;14.67;;;12.20;88.10;;;;;;5012652;28;20512;-73
2021/11/11 07:00:53;;;;;;;40.70;15.67;;;11.80;85.10;;;;;;5012923;28;20698;-69
2021/11/11 07:03:19;;;;;;;20.50;14.30;;;11.30;84.30;;;;;;5013208;28;20398;-69
2021/11/11 07:05:45;;;;;;;24.60;15.07;;;10.80;84.50;;;;;;5012571;28;20415;-69
2021/11/11 07:08:13;;;;;;;18.73;14.20;;;10.20;85.40;;;;;;5012924;28;20508;-69
2021/11/11 07:10:41;;;;;;;27.90;14.67;;;9.80;88.30;;;;;;4994645;28;20783;-69
2021/11/11 07:13:07;;;;;;;21.10;14.00;;;9.40;90.10;;;;;;5012748;28;20914;-69
2021/11/11 07:15:34;;;;;;;21.33;14.63;;;9.10;90.90;;;;;;5012403;28;20398;-69
2021/11/11 07:18:00;;;;;;;32.57;14.00;;;8.80;91.80;;;;;;5013071;28;20425;-69
2021/11/11 07:20:26;;;;;;;30.70;13.43;;;8.50;92.50;;;;;;5012413;28;20465;-70
2021/11/11 07:22:54;;;;;;;20.37;14.30;;;8.30;93.00;;;;;;5012693;28;20967;-69
2021/11/11 07:25:20;;;;;;;20.27;14.30;;;8.10;93.60;;;;;;5013031;28;20446;-69
2021/11/11 07:27:46;;;;;;;30.77;14.67;;;7.80;94.10;;;;;;5012220;28;20759;-69
2021/11/11 07:30:15;;;;;;;21.53;14.27;;;7.60;94.70;;;;;;5012958;28;20450;-69
2021/11/11 07:32:41;;;;;;;15.50;12.53;;;7.40;95.20;;;;;;5011975;28;20762;-69
2021/11/11 07:35:09;;;;;;;24.23;12.90;;;7.30;95.80;;;;;;5012544;28;20425;-69
2021/11/11 07:37:36;;;;;;;39.73;14.00;;;7.20;96.10;;;;;;5012234;28;20489;-70
2021/11/11 07:40:04;;;;;;;16.37;13.30;;;7.10;96.30;;;;;;5012774;28;20922;-69
2021/11/11 07:42:30;;;;;;;19.20;13.40;;;6.90;96.90;;;;;;5012156;28;20459;-70
2021/11/11 07:44:56;;;;;;;26.63;15.73;;;6.80;97.30;;;;;;5014239;28;20430;-69
2021/11/11 07:47:28;;;;;;;28.33;13.40;;;6.70;97.60;;;;;;5016940;28;20385;-69
2021/11/11 07:49:58;;;;;;;16.73;14.20;;;6.60;97.60;;;;;;5016803;28;20290;-69
2021/11/11 07:52:25;;;;;;;17.67;12.80;;;6.50;98.10;;;;;;5016567;28;20423;-69
2021/11/11 07:54:53;;;;;;;17.07;13.10;;;6.50;98.50;;;;;;4999186;28;20861;-69
2021/11/11 07:57:27;;;;;;;18.15;13.05;;;6.50;98.80;;;;;;5016630;28;20943;-69
2021/11/11 07:59:53;;;;;;;16.10;13.33;;;6.50;98.70;;;;;;5016569;28;20181;-69
2021/11/11 08:02:21;;;;;;;21.80;14.50;;;6.50;98.80;;;;;;5016555;28;20887;-69
2021/11/11 08:04:48;;;;;;;20.83;15.90;;;6.40;98.80;;;;;;5015849;28;20632;-69
2021/11/11 08:07:17;;;;;;;18.47;15.67;;;6.20;98.60;;;;;;4998836;28;20547;-69
2021/11/11 08:09:44;;;;;;;17.23;13.13;;;6.40;98.70;;;;;;5015721;28;20444;-69
2021/11/11 08:12:10;;;;;;;16.30;12.67;;;5.90;98.50;;;;;;5016510;28;20434;-69
2021/11/11 08:14:36;;;;;;;17.50;14.03;;;6.30;99.20;;;;;;5015721;28;20895;-69
2021/11/11 08:17:02;;;;;;;18.87;14.60;;;6.20;99.50;;;;;;5016571;28;20221;-69
2021/11/11 08:19:28;;;;;;;17.00;12.63;;;6.30;99.70;;;;;;4997870;28;20419;-71
2021/11/11 08:21:54;;;;;;;18.80;14.37;;;6.20;99.70;;;;;;4998898;28;20799;-69
2021/11/11 08:24:19;;;;;;;19.77;13.73;;;6.10;99.90;;;;;;5016112;28;20203;-69
2021/11/11 08:26:45;;;;;;;17.93;14.40;;;6.00;99.90;;;;;;5015506;28;20194;-69
2021/11/11 08:29:11;;;;;;;19.80;13.93;;;6.00;99.90;;;;;;5015993;28;20660;-69
2021/11/11 08:31:37;;;;;;;30.80;15.47;;;6.00;99.90;;;;;;5015072;28;20411;-69
2021/11/11 08:34:03;;;;;;;21.57;15.47;;;6.10;99.90;;;;;;4998287;28;20192;-69
2021/11/11 08:36:30;;;;;;;19.40;14.87;;;6.10;99.90;;;;;;5015179;28;20411;-71
2021/11/11 08:38:59;;;;;;;21.87;15.90;;;6.20;99.90;;;;;;4998528;28;20414;-69
2021/11/11 08:41:26;;;;;;;24.17;15.40;;;6.20;99.90;;;;;;5015281;28;20473;-69
2021/11/11 08:43:57;;;;;;;32.43;15.90;;;6.30;99.90;;;;;;5015199;28;20407;-69
2021/11/11 08:46:23;;;;;;;32.47;15.53;;;6.40;99.90;;;;;;4998946;28;20423;-69
2021/11/11 08:48:49;;;;;;;24.93;17.03;;;6.40;99.90;;;;;;5015023;28;20841;-69
2021/11/11 08:51:15;;;;;;;18.23;15.10;;;6.50;99.90;;;;;;5015926;28;20423;-69
2021/11/11 08:53:40;;;;;;;26.30;16.13;;;6.50;99.90;;;;;;5014601;28;20176;-69
2021/11/11 08:56:06;;;;;;;24.00;15.50;;;6.70;99.90;;;;;;4997519;28;20384;-69
2021/11/11 08:58:36;;;;;;;23.50;15.73;;;6.90;99.90;;;;;;5015060;28;20190;-70
2021/11/11 09:01:05;;;;;;;19.70;14.93;;;7.30;99.90;;;;;;5015396;28;20417;-69
2021/11/11 09:03:32;;;;;;;20.40;15.93;;;7.80;99.90;;;;;;5014755;28;20918;-71
2021/11/11 09:05:59;;;;;;;19.73;14.97;;;8.40;99.50;;;;;;4998110;28;20406;-69
2021/11/11 09:08:24;;;;;;;15.63;13.97;;;9.00;98.10;;;;;;5015209;28;20454;-69
2021/11/11 09:10:52;;;;;;;16.80;14.20;;;9.50;96.70;;;;;;5014357;28;21101;-70
2021/11/11 09:13:18;;;;;;;17.97;15.10;;;10.00;95.50;;;;;;5015192;28;20630;-69
2021/11/11 09:15:43;;;;;;;20.03;15.10;;;10.30;95.00;;;;;;5014199;28;20455;-69
2021/11/11 09:18:09;;;;;;;18.23;14.67;;;10.50;94.10;;;;;;5014958;28;20425;-69
2021/11/11 09:20:38;;;;;;;21.50;15.83;;;10.70;93.20;;;;;;5013959;28;20174;-71
2021/11/11 09:23:04;;;;;;;16.43;14.73;;;10.90;92.80;;;;;;5014406;28;20229;-70
2021/11/11 09:25:33;;;;;;;19.77;16.80;;;11.20;92.50;;;;;;5015009;28;20409;-69
2021/11/11 09:27:59;;;;;;;18.57;16.43;;;11.10;91.20;;;;;;5014887;28;20416;-69
2021/11/11 09:30:30;;;;;;;19.53;17.10;;;11.10;91.80;;;;;;4997459;28;20402;-69
2021/11/11 09:32:56;;;;;;;21.80;16.60;;;11.10;91.80;;;;;;5014234;28;20853;-69
2021/11/11 09:35:22;;;;;;;21.10;17.67;;;11.20;91.90;;;;;;5014786;28;20418;-69
2021/11/11 09:37:49;;;;;;;19.50;17.37;;;11.10;92.60;;;;;;5014127;28;20456;-69
2021/11/11 09:40:18;;;;;;;20.00;17.00;;;11.00;93.60;;;;;;5014657;28;20503;-69
2021/11/11 09:42:44;;;;;;;19.03;16.70;;;10.90;94.10;;;;;;5013692;28;20542;-71
2021/11/11 09:45:13;;;;;;;24.50;17.97;;;10.90;93.30;;;;;;5014670;28;20474;-71
2021/11/11 09:47:39;;;;;;;20.17;17.23;;;10.90;93.30;;;;;;5014191;28;20521;-71
2021/11/11 09:50:09;;;;;;;21.30;17.13;;;10.90;93.40;;;;;;5014222;28;20997;-71
2021/11/11 09:52:38;;;;;;;17.83;15.30;;;10.90;94.40;;;;;;5014120;28;20416;-71
2021/11/11 10:00:34;;;;;;;19.47;16.03;;;11.50;94.00;;;;;;5014273;28;20398;-72
2021/11/11 10:03:00;;;;;;;19.80;16.40;;;11.70;94.60;;;;;;5014267;28;20439;-71
2021/11/11 10:05:25;;;;;;;21.93;17.10;;;11.90;94.20;;;;;;5014247;28;20760;-71
2021/11/11 10:07:51;;;;;;;19.77;16.67;;;12.20;94.50;;;;;;5012741;28;20403;-71
2021/11/11 10:10:37;;;;;;;20.97;16.83;;;12.40;93.20;;;;;;5013947;28;20219;-71
2021/11/11 10:13:17;;;;;;;21.00;17.80;;;12.70;92.40;;;;;;5014352;28;20178;-71
2021/11/11 10:16:10;;;;;;;18.33;16.30;;;12.90;91.20;;;;;;5013630;28;20413;-71
2021/11/11 10:18:53;;;;;;;25.20;18.80;;;13.00;91.00;;;;;;5013438;28;20485;-72
2021/11/11 10:21:36;;;;;;;22.20;17.57;;;13.10;90.30;;;;;;5014094;28;20411;-71
2021/11/11 10:30:08;;;;;;;22.10;17.30;;;13.50;89.10;;;;;;5013141;28;20454;-71
2021/11/11 10:32:41;;;;;;;19.50;17.40;;;13.60;90.50;;;;;;4996402;28;20417;-71
2021/11/11 10:35:12;;;;;;;20.40;17.40;;;13.70;90.10;;;;;;4996221;28;20738;-71
2021/11/11 10:37:47;;;;;;;22.90;18.27;;;13.80;90.40;;;;;;5013003;28;20407;-71
2021/11/11 10:40:18;;;;;;;18.60;16.77;;;14.10;90.10;;;;;;5013245;28;20460;-71
2021/11/11 10:42:46;;;;;;;22.13;17.63;;;14.20;89.10;;;;;;5013020;28;20461;-71
2021/11/11 10:45:16;;;;;;;21.40;16.47;;;14.30;87.80;;;;;;5013349;28;20462;-71
2021/11/11 10:47:51;;;;;;;22.07;18.30;;;14.30;87.40;;;;;;5012952;28;20454;-71
2021/11/11 10:50:21;;;;;;;25.53;18.53;;;14.30;88.90;;;;;;5013336;28;20465;-70
2021/11/11 10:52:50;;;;;;;23.70;17.27;;;14.40;89.30;;;;;;5012903;28;20406;-70
2021/11/11 10:55:24;;;;;;;19.77;17.63;;;14.60;88.60;;;;;;5013053;28;20411;-70
2021/11/11 10:57:54;;;;;;;21.10;16.90;;;14.70;88.90;;;;;;4995263;28;20410;-69
2021/11/11 11:00:38;;;;;;;23.97;19.23;;;15.00;87.80;;;;;;5013272;28;20404;-70
2021/11/11 11:03:06;;;;;;;19.67;17.63;;;15.10;87.70;;;;;;5013374;28;20411;-70
2021/11/11 11:05:43;;;;;;;20.50;18.10;;;15.30;87.30;;;;;;5013464;28;20436;-70
2021/11/11 11:08:12;;;;;;;23.00;20.60;;;15.50;86.20;;;;;;5013153;28;20409;-70
2021/11/11 11:10:41;;;;;;;24.73;19.87;;;15.70;86.30;;;;;;4995271;28;20746;-71
2021/11/11 11:13:29;;;;;;;24.47;18.80;;;15.80;85.60;;;;;;5013075;28;20475;-70
2021/11/11 11:16:01;;;;;;;23.20;18.77;;;15.90;84.50;;;;;;5012551;28;20496;-70
2021/11/11 11:18:33;;;;;;;22.13;19.83;;;16.00;83.00;;;;;;5012860;28;20406;-70
2021/11/11 11:21:06;;;;;;;22.30;19.17;;;16.10;84.00;;;;;;5012453;28;20417;-70
2021/11/11 11:23:46;;;;;;;20.60;18.40;;;16.00;81.60;;;;;;4995513;28;20404;-71
2021/11/11 11:26:24;;;;;;;20.57;17.30;;;16.00;82.40;;;;;;5012978;28;20495;-70
2021/11/11 11:29:07;;;;;;;21.10;18.10;;;16.10;83.00;;;;;;4994728;28;20449;-71
2021/11/11 11:31:49;;;;;;;20.10;17.97;;;16.20;81.90;;;;;;5012910;28;20504;-71
2021/11/11 11:34:24;;;;;;;23.63;18.03;;;16.30;80.50;;;;;;5013201;28;20401;-70
2021/11/11 11:36:59;;;;;;;21.20;17.77;;;16.30;81.60;;;;;;5012292;28;20501;-70
2021/11/11 11:39:36;;;;;;;25.50;18.47;;;16.40;82.90;;;;;;5012571;28;20425;-70
2021/11/11 11:42:09;;;;;;;20.67;17.60;;;16.50;82.20;;;;;;5012079;28;20511;-71
2021/11/11 11:44:54;;;;;;;20.73;18.57;;;16.60;80.10;;;;;;5012700;28;20414;-71
2021/11/11 11:47:44;;;;;;;18.20;16.30;;;16.70;79.20;;;;;;5012467;28;20410;-70
2021/11/11 11:50:24;;;;;;;20.00;17.13;;;16.80;81.00;;;;;;5012635;28;20842;-70
2021/11/11 11:52:56;;;;;;;19.07;17.07;;;16.80;78.30;;;;;;5012044;28;20463;-70
2021/11/11 11:55:27;;;;;;;20.37;17.67;;;16.90;79.30;;;;;;5012581;28;20416;-70
2021/11/11 11:58:13;;;;;;;22.00;17.37;;;16.80;77.60;;;;;;5011510;28;20403;-70
2021/11/11 12:08:36;;;;;;;22.93;18.93;;;16.80;78.30;;;;;;5012025;28;20473;-70
2021/11/11 12:14:18;;;;;;;24.47;20.60;;;16.60;77.00;;;;;;4980145;28;20425;-70
2021/11/11 12:39:42;;;;;;;20.30;18.13;;;15.90;80.30;;;;;;5015679;28;20901;-70
2021/11/11 12:42:27;;;;;;;22.73;17.83;;;15.90;80.10;;;;;;5015441;28;20562;-70
2021/11/11 12:45:17;;;;;;;24.40;18.93;;;15.90;79.80;;;;;;5015201;28;20425;-69
2021/11/11 12:47:48;;;;;;;21.33;17.67;;;15.80;79.80;;;;;;5015842;28;20405;-70
2021/11/11 12:50:50;;;;;;;23.43;18.77;;;15.80;81.50;;;;;;4998103;28;20552;-70
2021/11/11 12:53:19;;;;;;;20.27;17.60;;;15.80;82.50;;;;;;4997935;28;20404;-70
2021/11/11 12:55:55;;;;;;;22.43;17.67;;;15.80;82.50;;;;;;5014922;28;20417;-70
2021/11/11 12:58:34;;;;;;;22.33;18.00;;;15.80;81.80;;;;;;5015534;28;20899;-70
2021/11/11 13:01:10;;;;;;;20.17;17.53;;;15.80;82.10;;;;;;5014821;28;20425;-70
2021/11/11 13:03:56;;;;;;;22.60;18.30;;;15.70;82.30;;;;;;5015525;28;20489;-70
2021/11/11 13:06:40;;;;;;;19.83;17.30;;;15.70;81.60;;;;;;4998151;28;20408;-70
2021/11/11 13:09:09;;;;;;;19.30;17.23;;;15.70;81.70;;;;;;5014588;28;20472;-70
2021/11/11 13:11:38;;;;;;;22.47;17.97;;;15.70;82.40;;;;;;5015419;28;20425;-70
2021/11/11 13:14:16;;;;;;;20.40;16.40;;;15.70;81.40;;;;;;4996675;28;20507;-70
2021/11/11 13:17:09;;;;;;;23.47;18.97;;;15.80;81.70;;;;;;5015186;28;20421;-71
2021/11/11 13:19:52;;;;;;;23.63;17.20;;;15.70;81.00;;;;;;4997460;28;20451;-70
2021/11/11 13:22:25;;;;;;;21.50;17.27;;;15.70;81.80;;;;;;4997528;28;20402;-70
2021/11/11 13:25:14;;;;;;;20.10;15.87;;;15.60;80.40;;;;;;5014443;28;20426;-71
2021/11/11 16:02:18;;;;;;;27.43;21.00;;;12.90;96.00;;;;;;5012031;28;20397;-68
2021/11/11 16:21:18;;;;;;;27.50;21.63;;;12.90;96.60;;;;;;5012448;28;20808;-67
2021/11/11 16:26:15;;;;;;;29.40;20.47;;;12.80;97.20;;;;;;4998483;28;20504;-67
2021/11/11 16:28:45;;;;;;;26.57;21.00;;;12.80;97.10;;;;;;5016026;28;20281;-67
2021/11/11 16:31:11;;;;;;;27.87;21.00;;;12.80;97.20;;;;;;5015532;28;20400;-68
2021/11/11 16:33:37;;;;;;;26.40;20.93;;;12.80;97.70;;;;;;4982223;28;20507;-67
2021/11/11 16:36:03;;;;;;;26.73;21.47;;;12.80;97.60;;;;;;5015287;28;20407;-67
2021/11/11 16:38:29;;;;;;;26.83;21.80;;;12.70;97.70;;;;;;5014816;28;20190;-67
2021/11/11 16:40:55;;;;;;;28.30;22.30;;;12.70;98.10;;;;;;5015577;28;20520;-67
2021/11/11 16:43:21;;;;;;;31.47;22.27;;;12.70;98.20;;;;;;5018947;28;20548;-67